Time;durP1;ratioP1;P1;durP2;ratioP2;P2;SDS_P1;SDS_P2;PMS_P1;PMS_P2;Temp;Humidity;BMP_temperature;BMP_pressure;BME280_temperature;BME280_humidity;BME280_pressure;Samples;Min_cycle;Max_cycle;Signal;HPM_P1;HPM_P2
2023/10/16 00:01:19;;;;;;;19.33;5.60;;;;;;;5.23;100.00;102308.69;5050311;28;20025;-66
2023/10/16 00:03:44;;;;;;;15.77;4.80;;;;;;;5.24;100.00;102304.88;5049944;28;20429;-66
2023/10/16 00:06:11;;;;;;;18.23;5.65;;;;;;;5.23;100.00;102303.22;5049923;28;20066;-66
2023/10/16 00:08:53;;;;;;;18.50;5.15;;;;;;;5.21;100.00;102306.19;5049610;28;20036;-66
2023/10/16 00:11:23;;;;;;;19.70;5.53;;;;;;;5.21;100.00;102300.72;5050276;28;20029;-66
2023/10/16 00:13:50;;;;;;;17.58;5.28;;;;;;;5.22;100.00;102298.78;5050067;28;20090;-65
2023/10/16 00:16:17;;;;;;;18.30;5.30;;;;;;;5.20;100.00;102299.03;5050030;28;20029;-65
2023/10/16 00:18:43;;;;;;;17.05;5.30;;;;;;;5.21;100.00;102297.09;5050148;28;20508;-65
2023/10/16 00:21:08;;;;;;;18.35;5.03;;;;;;;5.21;100.00;102303.44;5031851;28;20033;-66
2023/10/16 00:23:38;;;;;;;15.98;4.75;;;;;;;5.20;100.00;102298.19;5049996;28;20120;-66
2023/10/16 00:26:06;;;;;;;19.60;5.18;;;;;;;5.18;100.00;102300.34;5049800;28;20065;-65
2023/10/16 00:28:32;;;;;;;18.45;5.03;;;;;;;5.19;100.00;102302.03;5050069;28;20032;-65
2023/10/16 00:30:57;;;;;;;16.85;4.72;;;;;;;5.20;100.00;102309.16;5049725;28;20033;-65
2023/10/16 00:33:23;;;;;;;17.52;4.65;;;;;;;5.20;100.00;102303.66;5049647;28;20047;-65
2023/10/16 00:35:48;;;;;;;18.02;4.50;;;;;;;5.21;100.00;102299.84;5031471;28;20039;-66
2023/10/16 00:38:14;;;;;;;17.92;4.63;;;;;;;5.19;100.00;102300.09;5049937;28;20023;-66
2023/10/16 00:41:15;;;;;;;16.65;4.82;;;;;;;5.22;100.00;102298.78;5049130;28;20082;-66
2023/10/16 00:43:40;;;;;;;16.58;4.40;;;;;;;5.25;100.00;102301.06;5049856;28;20578;-66
2023/10/16 00:46:10;;;;;;;15.95;4.32;;;;;;;5.26;100.00;102303.56;5049923;28;20079;-66
2023/10/16 00:48:37;;;;;;;20.02;4.30;;;;;;;5.29;100.00;102305.84;5031521;28;20029;-66
2023/10/16 00:53:35;;;;;;;17.13;4.55;;;;;;;5.33;100.00;102311.72;5049675;28;20440;-66
2023/10/16 00:56:07;;;;;;;17.00;4.57;;;;;;;5.34;100.00;102313.38;5049442;28;20033;-66
2023/10/16 00:58:36;;;;;;;18.48;4.85;;;;;;;5.38;100.00;102308.25;5049879;28;20052;-66
2023/10/16 01:01:05;;;;;;;18.20;4.95;;;;;;;5.38;100.00;102306.38;5049461;28;20029;-66
2023/10/16 01:03:33;;;;;;;19.70;5.13;;;;;;;5.37;100.00;102299.22;5049461;28;20108;-66
2023/10/16 01:05:59;;;;;;;19.60;6.05;;;;;;;5.37;100.00;102298.34;5049542;28;20433;-66
2023/10/16 01:08:25;;;;;;;22.85;6.97;;;;;;;5.33;100.00;102302.66;5049235;28;20052;-66
2023/10/16 01:10:54;;;;;;;25.48;6.93;;;;;;;5.31;100.00;102300.13;5048902;28;20025;-65
2023/10/16 01:13:19;;;;;;;22.85;6.78;;;;;;;5.27;100.00;102293.44;5049038;28;20079;-65
2023/10/16 01:15:50;;;;;;;19.20;5.60;;;;;;;5.21;100.00;102289.72;5048992;28;20079;-65
2023/10/16 01:18:16;;;;;;;18.95;5.35;;;;;;;5.19;100.00;102293.78;5049310;28;20029;-65
2023/10/16 01:20:50;;;;;;;18.88;5.32;;;;;;;5.13;100.00;102285.41;5048942;28;20318;-65
2023/10/16 01:23:20;;;;;;;18.67;5.50;;;;;;;5.09;100.00;102281.47;5049013;28;20096;-65
2023/10/16 01:25:46;;;;;;;16.73;4.90;;;;;;;5.08;100.00;102282.53;5049206;28;20044;-65
2023/10/16 01:28:12;;;;;;;17.80;4.70;;;;;;;5.07;100.00;102283.63;5049202;28;20033;-65
2023/10/16 01:30:41;;;;;;;19.02;5.03;;;;;;;5.07;100.00;102275.38;5049588;28;20021;-65
2023/10/16 01:33:07;;;;;;;18.00;5.30;;;;;;;5.08;100.00;102273.47;5049488;28;20036;-65
2023/10/16 01:35:36;;;;;;;18.40;5.07;;;;;;;5.07;100.00;102269.91;5049642;28;20068;-65
2023/10/16 01:38:08;;;;;;;16.35;5.20;;;;;;;5.10;100.00;102279.56;5049543;28;20116;-65
2023/10/16 01:40:37;;;;;;;17.67;4.90;;;;;;;5.12;100.00;102283.72;5049306;28;20029;-65
2023/10/16 01:43:05;;;;;;;17.67;5.05;;;;;;;5.12;100.00;102272.75;5049391;28;20033;-65
2023/10/16 01:45:31;;;;;;;20.55;5.13;;;;;;;5.15;100.00;102274.19;5049250;28;20040;-65
2023/10/16 01:47:56;;;;;;;19.60;5.25;;;;;;;5.15;100.00;102279.69;5049022;28;20029;-65
2023/10/16 01:50:22;;;;;;;18.48;5.18;;;;;;;5.15;100.00;102275.03;5049065;28;20440;-65
2023/10/16 01:52:49;;;;;;;19.60;5.43;;;;;;;5.15;100.00;102272.31;5051812;28;20096;-65
2023/10/16 01:55:16;;;;;;;18.58;5.60;;;;;;;5.13;100.00;102259.91;5052646;28;20338;-65
2023/10/16 01:57:44;;;;;;;18.20;5.65;;;;;;;5.13;100.00;102271.69;5053060;28;20028;-65
2023/10/16 02:00:17;;;;;;;18.17;5.78;;;;;;;5.11;100.00;102264.78;5053187;28;20032;-65
2023/10/16 02:02:45;;;;;;;18.67;5.90;;;;;;;5.06;100.00;102250.91;5052996;28;20033;-65
2023/10/16 02:05:11;;;;;;;19.80;5.72;;;;;;;5.08;100.00;102262.50;5052530;28;20024;-65
2023/10/16 02:07:41;;;;;;;20.55;5.55;;;;;;;5.06;100.00;102265.47;5052642;28;20462;-65
2023/10/16 02:10:07;;;;;;;19.02;6.00;;;;;;;5.04;100.00;102267.59;5052739;28;20028;-65
2023/10/16 02:12:33;;;;;;;18.90;5.88;;;;;;;5.00;100.00;102259.00;5052710;28;20113;-65
2023/10/16 02:15:05;;;;;;;17.60;5.88;;;;;;;4.96;100.00;102256.97;5052557;28;20033;-65
2023/10/16 02:17:30;;;;;;;18.67;6.32;;;;;;;4.97;100.00;102258.66;5052485;28;20043;-65
2023/10/16 02:19:56;;;;;;;20.75;6.32;;;;;;;4.97;100.00;102253.16;5052134;28;20021;-65
2023/10/16 02:22:22;;;;;;;19.08;6.50;;;;;;;4.97;100.00;102250.41;5052033;28;20060;-65
2023/10/16 02:24:49;;;;;;;21.17;7.13;;;;;;;5.00;100.00;102253.53;5051983;28;20407;-66
2023/10/16 02:27:18;;;;;;;18.27;6.45;;;;;;;5.03;100.00;102251.41;5052284;28;20039;-65
2023/10/16 02:29:45;;;;;;;20.92;6.40;;;;;;;5.04;100.00;102245.66;5052001;28;20101;-65
2023/10/16 02:32:12;;;;;;;20.85;6.97;;;;;;;5.06;100.00;102251.75;5051928;28;20163;-65
2023/10/16 02:34:37;;;;;;;19.70;6.75;;;;;;;5.10;100.00;102252.13;5052006;28;20059;-65
2023/10/16 02:37:06;;;;;;;18.30;6.32;;;;;;;5.11;100.00;102249.13;5051913;28;20033;-65
2023/10/16 02:39:37;;;;;;;20.20;6.68;;;;;;;5.13;100.00;102247.00;5052059;28;20318;-65
2023/10/16 02:42:08;;;;;;;18.05;6.28;;;;;;;5.16;100.00;102248.44;5033350;28;20048;-65
2023/10/16 02:44:42;;;;;;;20.50;6.60;;;;;;;5.18;100.00;102242.72;5051373;28;20353;-65
2023/10/16 02:47:09;;;;;;;19.40;6.07;;;;;;;5.17;100.00;102241.88;5051424;28;20079;-65
2023/10/16 02:49:35;;;;;;;19.55;6.45;;;;;;;5.15;100.00;102241.28;5051364;28;20431;-65
2023/10/16 02:52:00;;;;;;;22.40;6.70;;;;;;;5.14;100.00;102240.44;5051400;28;20120;-65
2023/10/16 02:54:26;;;;;;;20.95;6.57;;;;;;;5.12;100.00;102245.31;5033252;28;20021;-65
2023/10/16 02:56:59;;;;;;;21.05;6.75;;;;;;;5.09;100.00;102244.97;5051361;28;20060;-65
2023/10/16 02:59:24;;;;;;;19.95;6.75;;;;;;;5.06;100.00;102246.28;5051515;28;20108;-65
2023/10/16 03:01:50;;;;;;;19.10;6.72;;;;;;;5.02;100.00;102245.06;5051111;28;20544;-65
2023/10/16 03:04:16;;;;;;;20.17;6.82;;;;;;;5.06;100.00;102249.03;5050409;28;20035;-65
2023/10/16 03:06:42;;;;;;;20.48;6.47;;;;;;;5.04;100.00;102247.59;5051037;28;20559;-65
2023/10/16 03:09:25;;;;;;;19.23;6.63;;;;;;;4.97;100.00;102234.78;5050967;28;20063;-65
2023/10/16 03:12:13;;;;;;;19.00;6.77;;;;;;;4.98;100.00;102252.09;5050853;28;20439;-65
2023/10/16 03:14:58;;;;;;;18.73;6.68;;;;;;;4.95;100.00;102244.31;5050947;28;20267;-65
2023/10/16 03:17:34;;;;;;;19.40;6.70;;;;;;;4.93;100.00;102247.31;5051136;28;20115;-65
2023/10/16 03:20:01;;;;;;;19.15;6.47;;;;;;;4.93;100.00;102252.81;5032932;28;20079;-65
2023/10/16 03:22:26;;;;;;;19.27;7.07;;;;;;;4.93;100.00;102249.19;5050399;28;20048;-65
2023/10/16 03:24:52;;;;;;;19.92;7.07;;;;;;;4.91;100.00;102248.63;5050653;28;20465;-65
2023/10/16 03:27:29;;;;;;;18.90;6.47;;;;;;;4.89;100.00;102246.09;5050783;28;20338;-65
2023/10/16 03:29:56;;;;;;;19.52;7.10;;;;;;;4.87;100.00;102241.91;5051138;28;20075;-65
2023/10/16 03:32:24;;;;;;;20.00;7.57;;;;;;;4.83;100.00;102241.56;5031062;28;20128;-65
2023/10/16 03:34:53;;;;;;;20.45;6.88;;;;;;;4.80;100.00;102248.34;5030921;28;20056;-65
2023/10/16 03:37:19;;;;;;;21.65;7.07;;;;;;;4.74;100.00;102241.03;5030958;28;20465;-65
2023/10/16 03:39:46;;;;;;;21.35;6.95;;;;;;;4.69;100.00;102240.91;5030752;28;20068;-65
2023/10/16 03:42:11;;;;;;;19.67;6.88;;;;;;;4.67;100.00;102245.78;5030875;28;20021;-65
2023/10/16 03:44:38;;;;;;;19.73;6.90;;;;;;;4.65;100.00;102236.94;5030245;28;20342;-65
2023/10/16 03:47:07;;;;;;;20.40;6.97;;;;;;;4.62;100.00;102226.47;5030195;28;20029;-65
2023/10/16 03:49:32;;;;;;;21.65;7.85;;;;;;;4.60;100.00;102232.16;5030272;28;20398;-65
2023/10/16 03:51:57;;;;;;;21.80;7.53;;;;;;;4.57;100.00;102237.25;5030110;28;20180;-65
2023/10/16 03:54:35;;;;;;;20.73;7.07;;;;;;;4.52;100.00;102233.34;5012276;28;20026;-66
2023/10/16 03:57:01;;;;;;;19.50;7.45;;;;;;;4.51;100.00;102239.88;5012578;28;20037;-66
2023/10/16 03:59:30;;;;;;;20.48;7.15;;;;;;;4.49;100.00;102238.41;5030242;28;20075;-66
2023/10/16 04:01:56;;;;;;;19.65;7.50;;;;;;;4.49;100.00;102238.41;5030106;28;20036;-66
2023/10/16 04:04:26;;;;;;;20.08;7.63;;;;;;;4.48;100.00;102231.28;5030259;28;20025;-66
2023/10/16 04:06:56;;;;;;;20.73;7.88;;;;;;;4.51;100.00;102239.88;5030190;28;20369;-65
2023/10/16 04:09:22;;;;;;;19.83;7.72;;;;;;;4.52;100.00;102230.59;5029767;28;20038;-64
2023/10/16 04:11:54;;;;;;;20.45;8.30;;;;;;;4.55;100.00;102233.91;5029779;28;20099;-65
2023/10/16 04:14:27;;;;;;;21.27;7.55;;;;;;;4.56;100.00;102222.75;5011851;28;20102;-65
2023/10/16 04:16:55;;;;;;;22.10;8.40;;;;;;;4.56;100.00;102219.16;5030333;28;20032;-65
2023/10/16 04:21:51;;;;;;;21.30;8.65;;;;;;;4.56;100.00;102225.47;5023792;28;20064;-66
2023/10/16 04:27:02;;;;;;;21.25;8.32;;;;;;;4.60;100.00;102223.09;5010157;28;20076;-66
2023/10/16 04:29:33;;;;;;;22.27;8.32;;;;;;;4.63;100.00;102223.47;5010287;28;20061;-66
2023/10/16 04:32:19;;;;;;;20.55;8.60;;;;;;;4.63;100.00;102211.69;5009945;28;20377;-66
2023/10/16 04:34:52;;;;;;;20.23;8.50;;;;;;;4.60;100.00;102206.66;5010058;28;20037;-66
2023/10/16 04:37:31;;;;;;;23.00;8.95;;;;;;;4.59;100.00;102208.56;5010235;28;20040;-66
2023/10/16 04:48:07;;;;;;;21.65;8.48;;;;;;;4.40;100.00;102202.28;5009995;28;20042;-66
2023/10/16 04:53:11;;;;;;;21.45;8.30;;;;;;;4.38;100.00;102201.69;5010205;28;20059;-65
2023/10/16 05:03:44;;;;;;;22.13;8.68;;;;;;;4.46;100.00;102198.59;5009903;28;20034;-64
2023/10/16 05:09:53;;;;;;;22.02;8.43;;;;;;;4.50;100.00;102198.97;5009672;28;20069;-66
2023/10/16 06:14:47;;;;;;;;;;;;;;;4.97;100.00;102201.88;5012506;28;20065;-65
2023/10/16 06:17:19;;;;;;;22.23;9.43;;;;;;;4.93;100.00;102194.34;5011958;28;20298;-65
2023/10/16 06:19:44;;;;;;;23.35;9.52;;;;;;;4.91;100.00;102193.78;5012315;28;20025;-66
2023/10/16 06:22:10;;;;;;;22.90;10.10;;;;;;;4.89;100.00;102199.47;5011993;28;20088;-65
2023/10/16 06:24:35;;;;;;;23.00;9.75;;;;;;;4.87;100.00;102192.56;5012132;28;20080;-65
2023/10/16 06:27:12;;;;;;;23.08;9.88;;;;;;;4.87;100.00;102193.38;5011842;28;20022;-65
2023/10/16 06:29:49;;;;;;;21.05;9.30;;;;;;;4.88;100.00;102195.06;5011768;28;20026;-65
2023/10/16 06:32:18;;;;;;;22.48;9.57;;;;;;;4.90;100.00;102195.66;5011922;28;20061;-65
2023/10/16 06:34:52;;;;;;;23.65;9.55;;;;;;;4.87;100.00;102192.56;5011715;28;20072;-66
2023/10/16 06:37:17;;;;;;;23.73;9.75;;;;;;;4.96;100.00;102191.16;5011630;28;20034;-65
2023/10/16 06:39:48;;;;;;;21.15;9.23;;;;;;;4.97;100.00;102190.09;5011092;28;20426;-65
2023/10/16 06:42:20;;;;;;;22.75;9.18;;;;;;;5.02;100.00;102195.69;5011699;28;20030;-65
2023/10/16 06:45:08;;;;;;;22.10;9.20;;;;;;;5.04;100.00;102201.78;5011663;28;20025;-66
2023/10/16 06:47:36;;;;;;;22.15;9.20;;;;;;;5.07;100.00;102192.22;5011481;28;20034;-65
2023/10/16 06:50:32;;;;;;;22.88;9.57;;;;;;;5.08;100.00;102199.41;5011558;28;20061;-65
2023/10/16 06:52:48;;;;;;;21.45;9.32;;;;;;;5.14;100.00;102198.47;5011172;28;20065;-66
2023/10/16 06:55:14;;;;;;;22.42;9.68;;;;;;;5.17;100.00;102202.66;5011353;28;20050;-66
2023/10/16 06:57:39;;;;;;;22.27;9.57;;;;;;;5.21;100.00;102201.94;5011274;28;20109;-66
2023/10/16 07:00:08;;;;;;;22.95;9.48;;;;;;;5.28;100.00;102197.16;5011362;28;20026;-66
2023/10/16 07:02:35;;;;;;;23.90;9.98;;;;;;;5.33;100.00;102196.44;5011771;28;20030;-65
2023/10/16 07:05:05;;;;;;;21.75;9.48;;;;;;;5.39;100.00;102203.72;5011576;28;20030;-65
2023/10/16 07:07:30;;;;;;;23.10;10.27;;;;;;;5.47;100.00;102200.66;4993673;28;20049;-65
2023/10/16 07:09:55;;;;;;;22.95;9.77;;;;;;;5.55;100.00;102201.38;5011404;28;20049;-65
2023/10/16 07:12:22;;;;;;;22.30;9.90;;;;;;;5.60;100.00;102188.59;5010861;28;20114;-66
2023/10/16 07:15:01;;;;;;;23.98;10.02;;;;;;;5.63;100.00;102190.84;5011155;28;20037;-66
2023/10/16 07:17:30;;;;;;;22.38;9.90;;;;;;;5.73;100.00;102197.63;5011095;28;20044;-64
2023/10/16 07:19:59;;;;;;;23.33;9.80;;;;;;;5.78;100.00;102190.34;4993376;28;20123;-65
2023/10/16 07:22:31;;;;;;;23.25;10.15;;;;;;;5.87;100.00;102195.47;5010566;28;20054;-65
2023/10/16 07:24:57;;;;;;;21.52;9.80;;;;;;;5.91;100.00;102202.97;4993177;28;20057;-64
2023/10/16 07:27:23;;;;;;;23.13;9.98;;;;;;;5.99;100.00;102198.22;4992974;28;20151;-65
2023/10/16 07:29:49;;;;;;;23.27;9.57;;;;;;;6.04;100.00;102193.72;5011111;28;20053;-65
2023/10/16 07:32:14;;;;;;;22.70;9.48;;;;;;;6.09;100.00;102202.03;5011032;28;20026;-65
2023/10/16 07:34:40;;;;;;;22.63;10.00;;;;;;;6.17;100.00;102191.75;5010937;28;20037;-65
2023/10/16 07:37:07;;;;;;;21.23;9.25;;;;;;;6.25;100.00;102199.59;4992684;28;20044;-66
2023/10/16 07:39:36;;;;;;;23.65;9.60;;;;;;;6.32;100.00;102204.97;5010672;28;20030;-66
2023/10/16 07:42:02;;;;;;;22.17;9.57;;;;;;;6.38;100.00;102195.72;5010402;28;20141;-65
2023/10/16 07:44:28;;;;;;;22.50;8.55;;;;;;;6.42;100.00;102194.16;5010415;28;20060;-66
2023/10/16 07:46:53;;;;;;;22.98;8.93;;;;;;;6.47;100.00;102188.75;5010173;28;20156;-65
2023/10/16 07:49:25;;;;;;;22.45;9.00;;;;;;;6.55;100.00;102195.78;5009918;28;20030;-66
2023/10/16 07:51:52;;;;;;;21.92;8.88;;;;;;;6.60;100.00;102192.31;5010267;28;20022;-65
2023/10/16 07:54:18;;;;;;;22.02;8.63;;;;;;;6.66;100.00;102194.91;5010177;28;20370;-65
2023/10/16 07:56:45;;;;;;;23.33;9.48;;;;;;;6.73;100.00;102194.75;5010342;28;20034;-65
2023/10/16 07:59:10;;;;;;;22.20;9.40;;;;;;;6.83;100.00;102194.09;5010036;28;20477;-66
2023/10/16 08:01:48;;;;;;;23.13;9.63;;;;;;;6.90;100.00;102193.94;5009916;28;20030;-65
2023/10/16 08:06:55;;;;;;;24.50;10.82;;;;;;;7.05;100.00;102191.44;5010318;28;20125;-65
2023/10/16 08:11:58;;;;;;;23.67;9.70;;;;;;;7.21;100.00;102205.50;5010288;28;20207;-65
2023/10/16 08:14:25;;;;;;;22.42;9.07;;;;;;;7.29;100.00;102199.56;5010661;28;20183;-65
2023/10/16 08:16:58;;;;;;;21.63;8.60;;;;;;;7.40;100.00;102200.53;5010377;28;20401;-66
2023/10/16 08:19:25;;;;;;;23.17;8.07;;;;;;;7.52;100.00;102192.19;5010231;28;20053;-65
2023/10/16 08:21:54;;;;;;;21.60;8.55;;;;;;;7.61;100.00;102196.19;5010139;28;20489;-66
2023/10/16 08:24:21;;;;;;;22.83;8.95;;;;;;;7.70;100.00;102194.66;5010165;28;20041;-66
2023/10/16 08:26:48;;;;;;;20.73;8.63;;;;;;;7.76;100.00;102203.84;5010913;28;20026;-66
2023/10/16 08:31:45;;;;;;;21.15;7.50;;;;;;;7.86;100.00;102203.97;5010323;28;20129;-65
2023/10/16 08:34:13;;;;;;;21.45;6.95;;;;;;;7.88;100.00;102196.28;5010132;28;20121;-65
2023/10/16 08:36:38;;;;;;;23.20;7.13;;;;;;;7.93;100.00;102201.03;5009980;28;20069;-65
2023/10/16 08:39:14;;;;;;;22.10;7.90;;;;;;;7.98;100.00;102195.63;5009809;28;20410;-65
2023/10/16 08:41:42;;;;;;;22.25;7.65;;;;;;;8.08;100.00;102198.47;5009449;28;20030;-65
2023/10/16 08:44:15;;;;;;;20.10;7.72;;;;;;;8.16;100.00;102186.19;5009812;28;20041;-65
2023/10/16 08:47:11;;;;;;;21.67;7.50;;;;;;;8.26;100.00;102189.06;5010205;28;20049;-65
2023/10/16 08:49:37;;;;;;;21.27;8.30;;;;;;;8.42;100.00;102187.31;5009860;28;20041;-66
2023/10/16 08:52:06;;;;;;;20.48;8.02;;;;;;;8.55;100.00;102196.28;5009980;28;20076;-65
2023/10/16 08:57:18;;;;;;;16.63;4.88;;;;;;;8.70;100.00;102198.38;5009898;28;20488;-65
2023/10/16 08:59:46;;;;;;;14.90;4.50;;;;;;;8.74;100.00;102194.03;5009576;28;20037;-66
2023/10/16 09:02:13;;;;;;;15.85;4.35;;;;;;;8.79;100.00;102194.06;5011622;28;20060;-66
2023/10/16 09:04:42;;;;;;;15.32;4.40;;;;;;;8.88;100.00;102202.72;5013494;28;20030;-66
2023/10/16 09:07:11;;;;;;;15.57;4.35;;;;;;;8.96;100.00;102202.22;5013889;28;20025;-67
2023/10/16 09:09:41;;;;;;;13.93;4.25;;;;;;;9.05;100.00;102199.84;5014109;28;20026;-66
2023/10/16 09:12:10;;;;;;;13.38;3.90;;;;;;;9.16;100.00;102209.03;5013781;28;20053;-66
2023/10/16 09:14:37;;;;;;;15.07;4.00;;;;;;;9.17;100.00;102206.00;5013677;28;20064;-66
2023/10/16 09:17:06;;;;;;;14.20;3.97;;;;;;;9.28;100.00;102203.31;5013749;28;20123;-66
2023/10/16 09:19:35;;;;;;;12.98;3.67;;;;;;;9.44;100.00;102201.53;5013394;28;20478;-66
2023/10/16 09:22:04;;;;;;;14.10;4.20;;;;;;;9.56;100.00;102201.31;5012743;28;20569;-66
2023/10/16 09:24:33;;;;;;;16.52;4.47;;;;;;;9.68;100.00;102201.97;5013353;28;20426;-66
2023/10/16 09:26:59;;;;;;;12.65;3.60;;;;;;;9.74;100.00;102206.41;5013055;28;20029;-66
2023/10/16 09:29:25;;;;;;;11.48;3.60;;;;;;;9.79;100.00;102202.84;5013106;28;20113;-66
2023/10/16 09:31:51;;;;;;;13.30;3.60;;;;;;;9.79;100.00;102203.69;5013135;28;20095;-65
2023/10/16 09:34:20;;;;;;;8.10;3.08;;;;;;;9.84;100.00;102197.34;5012989;28;20385;-66
2023/10/16 09:37:14;;;;;;;13.30;3.30;;;;;;;9.91;100.00;102199.88;5012817;28;20038;-66
2023/10/16 09:39:35;;;;;;;14.38;3.30;;;;;;;10.01;100.00;102210.16;5012502;28;20037;-66
2023/10/16 09:42:12;;;;;;;13.60;3.10;;;;;;;10.11;100.00;102210.22;5012935;28;20116;-66
2023/10/16 09:44:40;;;;;;;13.85;3.53;;;;;;;10.17;100.00;102211.88;5012666;28;20065;-66
2023/10/16 09:47:30;;;;;;;16.00;3.83;;;;;;;10.22;100.00;102205.53;5012752;28;20121;-66
2023/10/16 09:50:00;;;;;;;12.18;3.70;;;;;;;10.26;100.00;102210.25;5012122;28;20045;-66
2023/10/16 09:52:30;;;;;;;11.07;2.65;;;;;;;10.33;100.00;102212.78;5012518;28;20035;-65
2023/10/16 09:54:58;;;;;;;11.23;2.85;;;;;;;10.38;100.00;102204.56;4995368;28;20040;-66
2023/10/16 09:57:29;;;;;;;9.93;2.70;;;;;;;10.45;100.00;102188.50;4994677;28;20105;-65
2023/10/16 09:59:54;;;;;;;6.93;2.40;;;;;;;10.55;100.00;102200.72;5013216;28;20048;-65
2023/10/16 10:02:25;;;;;;;10.15;2.58;;;;;;;10.54;99.91;102199.06;5014174;28;20022;-68
2023/10/16 10:05:08;;;;;;;9.90;2.63;;;;;;;10.59;100.00;102202.66;5014548;28;20038;-66
2023/10/16 10:07:36;;;;;;;13.32;3.13;;;;;;;10.63;100.00;102197.41;5013319;28;20041;-66
2023/10/16 10:13:08;;;;;;;11.60;3.20;;;;;;;10.84;100.00;102203.81;4958872;28;20105;-67
2023/10/16 10:15:38;;;;;;;11.32;2.90;;;;;;;10.93;100.00;102201.34;5012961;28;20073;-66
2023/10/16 10:20:58;;;;;;;13.88;2.75;;;;;;;11.01;100.00;102194.41;5012560;28;20080;-66
2023/10/16 10:23:24;;;;;;;5.57;1.85;;;;;;;11.06;98.54;102189.69;5012315;28;20053;-65
2023/10/16 10:25:53;;;;;;;4.10;1.60;;;;;;;11.11;95.74;102194.41;5012426;28;20029;-65
2023/10/16 10:28:29;;;;;;;4.80;1.17;;;;;;;11.20;94.33;102189.16;5012365;28;20026;-65
2023/10/16 10:30:56;;;;;;;6.65;1.90;;;;;;;11.21;91.27;102191.63;5011951;28;20038;-65
2023/10/16 10:33:51;;;;;;;13.18;3.80;;;;;;;11.31;96.20;102189.97;5011264;28;20128;-66
2023/10/16 10:36:39;;;;;;;5.70;2.17;;;;;;;11.37;96.28;102189.69;5011589;28;20450;-65
2023/10/16 10:39:20;;;;;;;6.97;2.03;;;;;;;11.38;93.29;102187.78;5011628;28;20048;-65
2023/10/16 10:41:51;;;;;;;5.05;1.70;;;;;;;11.35;91.74;102188.31;5011868;28;20112;-65
2023/10/16 10:44:19;;;;;;;7.65;1.55;;;;;;;11.28;89.97;102194.13;5012071;28;20452;-65
2023/10/16 10:46:53;;;;;;;5.97;2.00;;;;;;;11.33;91.39;102185.00;5011857;28;20326;-66
2023/10/16 10:49:26;;;;;;;10.10;2.38;;;;;;;11.27;91.79;102192.47;5011642;28;20033;-66
2023/10/16 10:51:53;;;;;;;8.68;2.88;;;;;;;11.19;94.01;102179.19;5011581;28;20037;-65
2023/10/16 10:54:23;;;;;;;13.10;2.72;;;;;;;11.18;94.27;102180.28;5011613;28;20037;-66
2023/10/16 10:56:48;;;;;;;11.27;3.47;;;;;;;11.18;95.87;102185.81;5011372;28;20477;-65
2023/10/16 10:59:47;;;;;;;8.98;2.20;;;;;;;11.27;93.60;102175.84;5011291;28;20117;-65
2023/10/16 11:04:44;;;;;;;5.47;2.30;;;;;;;11.45;91.99;102165.28;5011273;28;20071;-66
2023/10/16 11:07:23;;;;;;;9.45;2.58;;;;;;;11.46;92.61;102170.59;5011123;28;20480;-65
2023/10/16 11:09:49;;;;;;;11.02;2.80;;;;;;;11.45;91.30;102166.16;5011457;28;20056;-66
2023/10/16 11:12:14;;;;;;;10.88;3.25;;;;;;;11.55;93.09;102159.75;5011255;28;20116;-65
2023/10/16 11:14:40;;;;;;;10.63;2.70;;;;;;;11.75;93.91;102161.66;5011272;28;20524;-65
2023/10/16 11:17:06;;;;;;;14.07;4.05;;;;;;;11.91;92.11;102164.34;5011282;28;20026;-66
2023/10/16 11:19:48;;;;;;;11.85;3.00;;;;;;;12.08;92.26;102166.81;5011356;28;20030;-66
2023/10/16 11:22:20;;;;;;;8.90;2.67;;;;;;;12.15;91.51;102157.06;5011127;28;20072;-65
2023/10/16 11:24:47;;;;;;;8.48;1.80;;;;;;;12.09;84.72;102160.16;5010946;28;20034;-65
2023/10/16 11:27:13;;;;;;;6.35;1.90;;;;;;;12.03;88.54;102159.34;5011291;28;20040;-65
2023/10/16 11:29:40;;;;;;;7.40;2.22;;;;;;;11.90;87.89;102149.69;5011955;28;20030;-65
2023/10/16 11:32:06;;;;;;;5.05;2.00;;;;;;;11.79;87.61;102156.38;4993386;28;20041;-66
2023/10/16 11:34:45;;;;;;;6.00;2.28;;;;;;;11.76;90.10;102146.63;5011113;28;20069;-66
2023/10/16 11:37:15;;;;;;;8.77;2.50;;;;;;;11.76;92.35;102146.63;5011503;28;20026;-67
2023/10/16 11:39:44;;;;;;;10.98;2.67;;;;;;;11.77;89.58;102147.50;5011134;28;20037;-66
2023/10/16 11:42:09;;;;;;;12.45;2.78;;;;;;;11.85;91.90;102141.34;5010920;28;20026;-65
2023/10/16 11:44:37;;;;;;;7.15;2.50;;;;;;;11.89;90.76;102133.28;5010866;28;20033;-66
2023/10/16 11:47:07;;;;;;;15.45;4.55;;;;;;;11.96;90.74;102131.03;4993102;28;20359;-65
2023/10/16 11:49:37;;;;;;;9.63;2.50;;;;;;;12.01;89.38;102134.66;5011042;28;20458;-66
2023/10/16 11:52:27;;;;;;;11.50;2.67;;;;;;;12.02;88.32;102128.00;5010602;28;20034;-66
2023/10/16 11:54:58;;;;;;;8.45;2.50;;;;;;;12.07;88.87;102129.91;5010633;28;20064;-66
2023/10/16 11:57:24;;;;;;;9.98;2.80;;;;;;;12.09;90.22;102129.66;4992854;28;20449;-66
2023/10/16 11:59:53;;;;;;;8.63;2.65;;;;;;;12.15;90.58;102123.78;5010687;28;20037;-66
2023/10/16 12:02:19;;;;;;;9.40;2.90;;;;;;;12.24;91.79;102115.69;5010225;28;20112;-65
2023/10/16 12:04:46;;;;;;;7.78;2.55;;;;;;;12.27;91.24;102111.50;5010567;28;20486;-65
2023/10/16 12:07:13;;;;;;;12.90;2.85;;;;;;;12.35;91.15;102115.63;5010549;28;20034;-66
2023/10/16 12:09:42;;;;;;;8.02;2.50;;;;;;;12.39;90.00;102119.47;5010798;28;20026;-66
2023/10/16 12:12:16;;;;;;;8.32;2.33;;;;;;;12.41;90.98;102106.16;5010775;28;20168;-65
2023/10/16 12:14:42;;;;;;;9.20;2.60;;;;;;;12.45;88.51;102112.78;5010808;28;20056;-66
2023/10/16 12:17:11;;;;;;;7.25;2.65;;;;;;;12.43;86.76;102115.03;5010442;28;20536;-65
2023/10/16 12:19:37;;;;;;;8.20;2.53;;;;;;;12.51;87.28;102108.03;5010716;28;20061;-66
2023/10/16 12:22:03;;;;;;;10.18;2.80;;;;;;;12.50;87.92;102103.59;5010156;28;20417;-65
2023/10/16 12:24:29;;;;;;;9.07;2.50;;;;;;;12.60;90.25;102106.31;5010443;28;20038;-66
2023/10/16 12:26:54;;;;;;;9.32;2.50;;;;;;;12.73;89.60;102102.03;5010274;28;20030;-65
2023/10/16 12:29:19;;;;;;;9.20;2.45;;;;;;;12.84;88.14;102088.88;5010436;28;20030;-66
2023/10/16 12:31:44;;;;;;;8.85;2.30;;;;;;;12.90;88.84;102096.88;5010374;28;20022;-66
2023/10/16 12:34:11;;;;;;;9.30;2.40;;;;;;;12.88;85.19;102096.34;5010269;28;20314;-67
2023/10/16 12:36:38;;;;;;;6.13;2.10;;;;;;;12.92;87.29;102089.09;5010203;28;20171;-67
2023/10/16 12:39:13;;;;;;;8.23;2.08;;;;;;;13.00;87.47;102095.13;5010181;28;20076;-67
2023/10/16 12:41:41;;;;;;;11.23;2.70;;;;;;;13.03;84.54;102086.22;5010517;28;20022;-67
2023/10/16 12:44:09;;;;;;;6.82;2.03;;;;;;;13.14;85.40;102078.59;5010152;28;20025;-65
2023/10/16 12:46:38;;;;;;;8.20;2.35;;;;;;;13.20;85.40;102086.59;5010050;28;20496;-66
2023/10/16 12:49:07;;;;;;;8.85;2.33;;;;;;;13.20;83.98;102085.75;5010182;28;20091;-66
2023/10/16 12:51:34;;;;;;;9.50;2.42;;;;;;;13.16;85.30;102076.38;5010132;28;20030;-66
2023/10/16 12:54:03;;;;;;;12.55;2.67;;;;;;;13.11;85.87;102080.84;5009865;28;20022;-66
2023/10/16 12:56:35;;;;;;;13.52;3.42;;;;;;;13.05;82.32;102083.97;5010112;28;20129;-66
2023/10/16 12:59:01;;;;;;;5.15;2.15;;;;;;;12.82;81.00;102080.84;5009706;28;20401;-66
2023/10/16 13:01:27;;;;;;;8.32;1.90;;;;;;;12.86;84.39;102081.91;5009570;28;20026;-67
2023/10/16 13:03:59;;;;;;;9.70;2.10;;;;;;;12.89;84.23;102072.19;5009776;28;20081;-67
2023/10/16 13:06:26;;;;;;;6.28;2.33;;;;;;;12.95;83.93;102082.13;5010445;28;20046;-67
2023/10/16 13:08:51;;;;;;;9.88;2.42;;;;;;;12.89;82.59;102075.78;5009762;28;20040;-64
2023/10/16 13:11:17;;;;;;;8.75;2.50;;;;;;;12.93;84.83;102078.81;5009312;28;20026;-66
2023/10/16 13:13:42;;;;;;;10.52;2.45;;;;;;;13.06;84.75;102069.78;5009493;28;20106;-66
2023/10/16 13:16:07;;;;;;;10.82;2.20;;;;;;;13.13;84.86;102075.00;5009509;28;20096;-66
2023/10/16 13:18:36;;;;;;;6.50;2.55;;;;;;;13.24;84.15;102075.72;4991600;28;20018;-66
2023/10/16 13:21:07;;;;;;;8.38;2.40;;;;;;;13.34;82.51;102072.84;5009247;28;20477;-66